Time;durP1;ratioP1;P1;durP2;ratioP2;P2;SDS_P1;SDS_P2;PMS_P1;PMS_P2;Temp;Humidity;BMP_temperature;BMP_pressure;BME280_temperature;BME280_humidity;BME280_pressure;Samples;Min_cycle;Max_cycle;Signal;HPM_P1;HPM_P2
2023/05/27 00:00:11;;;;;;;25.50;5.60;;;;;;;7.34;100.00;103146.03;5033675;28;20041;-81
2023/05/27 00:02:37;;;;;;;19.13;5.43;;;;;;;7.32;100.00;103141.75;5035909;28;20108;-81
2023/05/27 00:05:03;;;;;;;13.73;4.47;;;;;;;7.28;100.00;103138.31;5035493;28;20044;-81
2023/05/27 00:07:29;;;;;;;19.70;5.07;;;;;;;7.28;100.00;103140.97;5035804;28;20030;-82
2023/05/27 00:09:54;;;;;;;19.17;5.72;;;;;;;7.23;100.00;103135.00;5034988;28;20048;-81
2023/05/27 00:12:20;;;;;;;26.73;5.50;;;;;;;7.17;100.00;103141.41;5035629;28;20053;-82
2023/05/27 00:14:45;;;;;;;19.38;6.25;;;;;;;7.12;100.00;103138.09;5035137;28;20033;-81
2023/05/27 00:17:14;;;;;;;22.35;5.03;;;;;;;7.07;100.00;103137.41;5035108;28;20044;-82
2023/05/27 00:19:44;;;;;;;26.20;6.65;;;;;;;7.01;100.00;103135.00;5035693;28;20049;-83
2023/05/27 00:22:10;;;;;;;20.95;5.55;;;;;;;6.92;100.00;103138.84;5034921;28;20033;-82
2023/05/27 00:24:38;;;;;;;21.83;5.20;;;;;;;6.81;100.00;103130.47;5031770;28;20405;-82
2023/05/27 00:27:08;;;;;;;21.38;5.35;;;;;;;6.73;100.00;103129.91;5035083;28;20053;-81
2023/05/27 00:29:34;;;;;;;17.30;5.53;;;;;;;6.65;100.00;103136.34;5035353;28;20454;-81
2023/05/27 00:32:02;;;;;;;24.50;5.30;;;;;;;6.56;100.00;103130.53;5035107;28;20363;-82
2023/05/27 00:34:28;;;;;;;22.65;5.70;;;;;;;6.50;100.00;103136.91;5035367;28;20051;-82
2023/05/27 00:36:53;;;;;;;18.80;5.22;;;;;;;6.45;100.00;103130.91;5035125;28;20184;-81
2023/05/27 00:39:19;;;;;;;27.63;6.22;;;;;;;6.35;100.00;103128.59;5033519;28;20034;-82
2023/05/27 00:41:48;;;;;;;20.80;5.07;;;;;;;6.26;100.00;103131.59;5035173;28;20110;-82
2023/05/27 00:44:13;;;;;;;18.42;5.82;;;;;;;6.20;100.00;103131.81;5034676;28;20029;-81
2023/05/27 00:46:39;;;;;;;24.65;5.00;;;;;;;6.14;100.00;103134.69;5034870;28;20071;-82
2023/05/27 00:49:05;;;;;;;14.23;4.20;;;;;;;6.06;100.00;103134.94;5034601;28;20458;-82
2023/05/27 00:51:31;;;;;;;20.50;4.70;;;;;;;6.01;100.00;103128.94;5035019;28;20063;-82
2023/05/27 00:53:56;;;;;;;17.85;4.32;;;;;;;5.95;100.00;103129.13;5033695;28;20056;-82
2023/05/27 00:56:22;;;;;;;19.02;4.55;;;;;;;5.87;100.00;103124.09;5034480;28;20116;-82
2023/05/27 00:58:48;;;;;;;14.82;4.53;;;;;;;5.82;100.00;103123.38;5034740;28;20061;-82
2023/05/27 01:01:13;;;;;;;21.08;4.93;;;;;;;5.78;100.00;103127.06;5034080;28;20135;-82
2023/05/27 01:03:41;;;;;;;15.35;3.95;;;;;;;5.72;100.00;103124.59;5034878;28;20037;-82
2023/05/27 01:06:19;;;;;;;19.35;4.47;;;;;;;5.65;100.00;103129.25;5034504;28;20041;-82
2023/05/27 01:09:08;;;;;;;22.33;4.90;;;;;;;5.59;100.00;103118.88;5036469;28;20377;-81
2023/05/27 01:11:40;;;;;;;18.90;4.32;;;;;;;5.55;100.00;103123.38;5034654;28;20041;-82
2023/05/27 01:14:10;;;;;;;14.43;3.78;;;;;;;5.50;100.00;103106.84;5034383;28;20397;-82
2023/05/27 01:16:39;;;;;;;26.08;4.75;;;;;;;5.47;100.00;103106.94;5037741;28;20044;-81
2023/05/27 01:19:10;;;;;;;19.25;4.97;;;;;;;5.45;100.00;103106.16;5034257;28;20030;-82
2023/05/27 01:21:39;;;;;;;19.58;5.10;;;;;;;5.42;100.00;103109.75;5033179;28;20063;-83
2023/05/27 01:24:04;;;;;;;10.43;4.18;;;;;;;5.43;100.00;103115.88;5031536;28;20054;-81
2023/05/27 01:26:30;;;;;;;23.67;4.90;;;;;;;5.41;100.00;103118.56;5034503;28;20063;-81
2023/05/27 01:28:56;;;;;;;16.75;4.32;;;;;;;5.35;100.00;103113.50;5033161;28;20473;-82
2023/05/27 01:31:30;;;;;;;16.45;4.65;;;;;;;5.32;100.00;103112.75;5032758;28;20037;-80
2023/05/27 01:34:01;;;;;;;19.35;4.50;;;;;;;5.28;100.00;103115.47;5033633;28;20128;-81
2023/05/27 01:36:30;;;;;;;17.30;4.28;;;;;;;5.23;100.00;103117.38;5033498;28;20025;-82
2023/05/27 01:38:57;;;;;;;21.30;4.57;;;;;;;5.21;100.00;103113.06;5035282;28;20539;-80
2023/05/27 01:41:24;;;;;;;14.38;4.05;;;;;;;5.17;100.00;103117.59;5034617;28;20480;-82
2023/05/27 01:43:51;;;;;;;20.75;4.75;;;;;;;5.12;100.00;103119.50;5034808;28;20029;-81
2023/05/27 01:46:17;;;;;;;15.88;4.00;;;;;;;5.08;100.00;103118.72;5034381;28;20038;-82
2023/05/27 01:48:43;;;;;;;19.50;4.28;;;;;;;5.03;100.00;103119.78;5021298;28;20042;-81
2023/05/27 01:51:08;;;;;;;16.70;4.80;;;;;;;5.01;100.00;103118.97;5042004;28;20495;-80
2023/05/27 01:53:34;;;;;;;10.57;3.38;;;;;;;4.97;100.00;103118.22;5036704;28;20034;-81
2023/05/27 01:56:00;;;;;;;17.27;4.60;;;;;;;4.97;100.00;103114.69;5034254;28;20108;-82
2023/05/27 01:58:25;;;;;;;23.15;4.35;;;;;;;4.93;100.00;103114.78;5033760;28;20096;-81
2023/05/27 02:00:51;;;;;;;13.20;3.58;;;;;;;4.93;100.00;103122.69;5032634;28;20069;-81
2023/05/27 02:03:16;;;;;;;20.83;5.28;;;;;;;4.91;100.00;103115.72;5032660;28;20037;-81
2023/05/27 02:05:42;;;;;;;17.20;4.57;;;;;;;4.93;100.00;103114.78;5033376;28;20256;-81
2023/05/27 02:08:08;;;;;;;14.02;4.30;;;;;;;4.89;100.00;103122.84;5032758;28;20042;-79
2023/05/27 02:10:33;;;;;;;12.77;3.78;;;;;;;4.85;100.00;103119.44;5033287;28;20043;-81
2023/05/27 02:12:59;;;;;;;10.02;3.88;;;;;;;4.83;100.00;103113.31;5032107;28;20043;-79
2023/05/27 02:15:26;;;;;;;26.83;5.70;;;;;;;4.83;100.00;103123.03;5033030;28;20465;-81
2023/05/27 02:17:55;;;;;;;14.82;4.38;;;;;;;4.82;100.00;103119.53;5033232;28;20036;-81
2023/05/27 02:20:21;;;;;;;14.07;4.38;;;;;;;4.79;100.00;103118.75;5033105;28;20038;-81
2023/05/27 02:22:47;;;;;;;18.63;5.30;;;;;;;4.81;100.00;103117.81;5033030;28;20029;-81
2023/05/27 02:25:12;;;;;;;16.00;4.38;;;;;;;4.79;100.00;103122.25;5033013;28;20065;-81
2023/05/27 02:27:38;;;;;;;17.50;4.50;;;;;;;4.78;100.00;103120.53;5032977;28;20057;-80
2023/05/27 02:30:04;;;;;;;21.30;4.95;;;;;;;4.79;100.00;103118.75;5033238;28;20124;-80
2023/05/27 02:32:31;;;;;;;20.23;4.53;;;;;;;4.75;100.00;103110.94;5032648;28;20482;-81
2023/05/27 02:34:56;;;;;;;11.52;3.70;;;;;;;4.71;100.00;103117.19;5032050;28;20299;-81
2023/05/27 02:37:21;;;;;;;17.50;4.68;;;;;;;4.70;100.00;103117.25;5032995;28;20450;-81
2023/05/27 02:39:47;;;;;;;15.90;4.03;;;;;;;4.68;100.00;103108.53;5032887;28;20041;-81
2023/05/27 02:42:12;;;;;;;16.23;4.63;;;;;;;4.69;100.00;103112.91;5031627;28;20029;-78
2023/05/27 02:44:38;;;;;;;15.80;4.50;;;;;;;4.68;100.00;103116.44;5033605;28;20026;-81
2023/05/27 02:47:03;;;;;;;12.77;4.28;;;;;;;4.69;100.00;103112.91;5034034;28;20117;-80
2023/05/27 02:49:28;;;;;;;13.80;4.43;;;;;;;4.64;100.00;103109.50;5032666;28;20029;-81
2023/05/27 02:51:54;;;;;;;16.70;4.03;;;;;;;4.62;100.00;103119.25;5032906;28;20026;-81
2023/05/27 02:54:19;;;;;;;12.30;3.97;;;;;;;4.58;100.00;103106.16;5032369;28;20029;-80
2023/05/27 02:56:45;;;;;;;17.02;4.55;;;;;;;4.55;100.00;103108.88;5032682;28;20183;-81
2023/05/27 02:59:10;;;;;;;14.27;3.88;;;;;;;4.50;100.00;103108.13;5031181;28;20029;-79
2023/05/27 03:01:35;;;;;;;15.85;4.70;;;;;;;4.47;100.00;103113.50;5032190;28;20029;-81
2023/05/27 03:04:02;;;;;;;16.73;4.50;;;;;;;4.42;100.00;103107.50;5032597;28;20370;-80
2023/05/27 03:06:28;;;;;;;15.13;4.55;;;;;;;4.45;100.00;103111.81;5032119;28;20067;-82
2023/05/27 03:08:53;;;;;;;21.02;4.60;;;;;;;4.44;100.00;103110.09;5032565;28;20116;-80
2023/05/27 03:11:18;;;;;;;12.38;4.22;;;;;;;4.42;100.00;103120.69;5031664;28;20021;-80
2023/05/27 03:13:44;;;;;;;18.08;4.63;;;;;;;4.40;100.00;103112.81;5032546;28;20097;-80
2023/05/27 03:16:10;;;;;;;16.30;4.88;;;;;;;4.43;100.00;103125.03;5032528;28;20157;-80
2023/05/27 03:18:36;;;;;;;17.45;4.13;;;;;;;4.41;100.00;103117.16;5031789;28;20044;-80
2023/05/27 03:21:01;;;;;;;18.48;4.60;;;;;;;4.41;100.00;103108.41;5030763;28;20033;-80
2023/05/27 03:23:27;;;;;;;16.50;4.97;;;;;;;4.47;100.00;103116.13;5031401;28;20053;-80
2023/05/27 03:25:52;;;;;;;22.30;4.90;;;;;;;4.51;100.00;103117.78;5031118;28;20412;-81
2023/05/27 03:28:17;;;;;;;22.02;5.03;;;;;;;4.50;100.00;103115.19;5032344;28;20078;-80
2023/05/27 03:30:43;;;;;;;11.98;3.63;;;;;;;4.46;100.00;103114.41;5031817;28;20033;-80
2023/05/27 03:33:08;;;;;;;16.02;4.88;;;;;;;4.46;100.00;103117.03;5032162;28;20030;-80
2023/05/27 03:35:34;;;;;;;25.48;5.15;;;;;;;4.50;100.00;103115.19;5035157;28;20025;-80
2023/05/27 03:37:59;;;;;;;19.63;5.60;;;;;;;4.51;100.00;103104.59;5036194;28;20374;-80
2023/05/27 03:40:25;;;;;;;11.75;4.57;;;;;;;4.51;100.00;103112.50;5036081;28;20116;-81
2023/05/27 03:42:50;;;;;;;14.82;5.13;;;;;;;4.55;100.00;103105.38;5036365;28;20132;-81
2023/05/27 03:45:15;;;;;;;22.40;5.40;;;;;;;4.58;100.00;103100.88;5035056;28;20080;-80
2023/05/27 03:47:41;;;;;;;23.08;4.93;;;;;;;4.64;100.00;103104.25;5035715;28;20052;-81
2023/05/27 03:50:06;;;;;;;18.92;4.32;;;;;;;4.65;100.00;103100.69;5035769;28;20037;-81
2023/05/27 03:52:32;;;;;;;15.77;4.25;;;;;;;4.64;100.00;103096.31;5035790;28;20053;-81
2023/05/27 03:54:58;;;;;;;15.35;5.03;;;;;;;4.68;100.00;103090.91;5035989;28;20112;-81
2023/05/27 03:57:23;;;;;;;12.63;4.25;;;;;;;4.71;100.00;103085.53;5035570;28;20103;-79
2023/05/27 03:59:48;;;;;;;20.88;4.68;;;;;;;4.74;100.00;103087.25;5034685;28;20050;-80
2023/05/27 04:02:14;;;;;;;14.60;5.43;;;;;;;4.73;100.00;103083.75;5035598;28;20034;-80
2023/05/27 04:04:39;;;;;;;17.75;4.80;;;;;;;4.70;100.00;103078.56;5035660;28;20510;-81
2023/05/27 04:07:04;;;;;;;13.48;4.88;;;;;;;4.69;100.00;103081.25;5034349;28;20319;-80
2023/05/27 04:09:30;;;;;;;21.85;5.53;;;;;;;4.70;100.00;103077.69;5035196;28;20041;-80
2023/05/27 04:11:56;;;;;;;22.33;5.35;;;;;;;4.72;100.00;103089.06;5017959;28;20063;-80
2023/05/27 04:14:21;;;;;;;19.40;4.55;;;;;;;4.76;100.00;103088.03;5035481;28;20025;-81
2023/05/27 04:16:47;;;;;;;21.00;5.07;;;;;;;4.78;100.00;103091.53;5035404;28;20053;-80
2023/05/27 04:19:13;;;;;;;18.40;5.45;;;;;;;4.78;100.00;103091.53;5034559;28;20030;-80
2023/05/27 04:21:39;;;;;;;17.45;5.38;;;;;;;4.80;100.00;103096.75;5035320;28;20103;-80
2023/05/27 04:24:04;;;;;;;22.67;5.68;;;;;;;4.83;100.00;103101.94;5035439;28;20406;-81
2023/05/27 04:26:30;;;;;;;17.83;4.97;;;;;;;4.89;100.00;103097.31;5034790;28;20063;-80
2023/05/27 04:28:59;;;;;;;16.50;5.25;;;;;;;4.91;100.00;103086.72;5035753;28;20034;-81
2023/05/27 04:31:28;;;;;;;18.50;4.88;;;;;;;4.95;100.00;103089.19;5035489;28;20104;-81
2023/05/27 04:33:54;;;;;;;15.77;4.38;;;;;;;5.02;100.00;103092.53;5035556;28;20037;-81
2023/05/27 04:36:24;;;;;;;17.52;4.68;;;;;;;5.06;100.00;103088.91;5035474;28;20040;-81
2023/05/27 04:38:50;;;;;;;21.80;5.35;;;;;;;5.12;100.00;103095.75;5033808;28;20462;-81
2023/05/27 04:41:16;;;;;;;15.65;4.22;;;;;;;5.17;100.00;103083.28;5035409;28;20114;-81
2023/05/27 04:43:42;;;;;;;15.75;4.57;;;;;;;5.23;100.00;103084.84;5034879;28;20435;-81
2023/05/27 04:46:07;;;;;;;22.67;5.32;;;;;;;5.29;100.00;103092.56;5035156;28;20037;-81
2023/05/27 04:48:35;;;;;;;15.52;4.20;;;;;;;5.35;100.00;103094.16;5035045;28;20037;-80
2023/05/27 04:51:00;;;;;;;14.95;4.72;;;;;;;5.41;100.00;103093.94;5034981;28;20469;-79
2023/05/27 04:53:25;;;;;;;16.58;4.60;;;;;;;5.46;100.00;103094.66;5033678;28;20030;-80
2023/05/27 04:55:51;;;;;;;24.52;4.93;;;;;;;5.57;100.00;103096.94;5034720;28;20033;-79
2023/05/27 04:58:16;;;;;;;21.13;4.68;;;;;;;5.67;100.00;103095.72;5035202;28;20040;-80
2023/05/27 05:00:52;;;;;;;14.95;4.82;;;;;;;5.77;100.00;103091.00;5033534;28;20393;-80
2023/05/27 05:03:21;;;;;;;18.38;4.40;;;;;;;5.86;100.00;103089.81;5035191;28;20045;-80
2023/05/27 05:05:54;;;;;;;15.25;4.47;;;;;;;5.93;100.00;103089.53;5034566;28;20026;-81
2023/05/27 05:08:20;;;;;;;12.68;4.70;;;;;;;6.00;100.00;103090.19;5033533;28;20045;-80
2023/05/27 05:10:47;;;;;;;17.77;4.28;;;;;;;6.08;100.00;103092.59;5034462;28;20036;-79
2023/05/27 05:13:13;;;;;;;20.27;4.75;;;;;;;6.15;100.00;103089.69;5034809;28;20079;-79
2023/05/27 05:15:39;;;;;;;16.65;3.95;;;;;;;6.24;100.00;103090.25;5034135;28;20033;-80
2023/05/27 05:18:04;;;;;;;20.05;4.55;;;;;;;6.32;100.00;103077.63;5034591;28;20065;-79
2023/05/27 05:20:30;;;;;;;18.10;5.53;;;;;;;6.41;100.00;103076.44;5034683;28;20037;-79
2023/05/27 05:22:55;;;;;;;14.07;4.32;;;;;;;6.50;100.00;103073.44;5033890;28;20040;-79
2023/05/27 05:25:21;;;;;;;18.02;4.35;;;;;;;6.58;100.00;103065.19;5033355;28;20103;-81
2023/05/27 05:27:46;;;;;;;19.95;4.78;;;;;;;6.67;100.00;103067.47;5034355;28;20034;-79
2023/05/27 05:30:12;;;;;;;12.43;4.00;;;;;;;6.74;100.00;103068.97;5036389;28;20040;-80
2023/05/27 05:32:37;;;;;;;19.52;4.65;;;;;;;6.83;100.00;103062.47;5035607;28;20335;-79
2023/05/27 05:35:03;;;;;;;15.85;4.47;;;;;;;6.89;100.00;103060.44;5037727;28;20470;-82
2023/05/27 05:37:29;;;;;;;17.02;4.85;;;;;;;6.99;100.00;103060.94;5034309;28;20060;-79
2023/05/27 05:39:55;;;;;;;26.40;4.65;;;;;;;7.05;100.00;103062.47;5032566;28;20038;-80
2023/05/27 05:42:21;;;;;;;16.77;4.38;;;;;;;7.14;100.00;103059.47;5034448;28;20080;-80
2023/05/27 05:44:47;;;;;;;16.27;4.95;;;;;;;7.24;100.00;103054.66;5033514;28;20034;-80
2023/05/27 05:47:12;;;;;;;22.27;5.18;;;;;;;7.34;100.00;103053.31;5032535;28;20040;-80
2023/05/27 05:49:37;;;;;;;17.83;4.32;;;;;;;7.45;100.00;103055.56;5034101;28;20065;-80
2023/05/27 05:52:03;;;;;;;21.17;5.07;;;;;;;7.58;100.00;103056.75;5034111;28;20358;-81
2023/05/27 05:54:28;;;;;;;16.25;4.30;;;;;;;7.70;100.00;103050.06;5032468;28;20025;-80
2023/05/27 05:56:54;;;;;;;20.17;4.97;;;;;;;7.84;100.00;103051.25;5032759;28;20034;-80
2023/05/27 05:59:20;;;;;;;18.52;4.80;;;;;;;7.99;100.00;103053.22;5033746;28;20037;-80
2023/05/27 06:01:45;;;;;;;20.90;5.45;;;;;;;8.17;100.00;103050.69;5033415;28;20336;-81
2023/05/27 06:04:10;;;;;;;15.10;4.53;;;;;;;8.35;100.00;103049.00;5015984;28;20108;-80
2023/05/27 06:06:36;;;;;;;19.83;5.03;;;;;;;8.53;100.00;103049.97;5032743;28;20466;-82
2023/05/27 06:09:01;;;;;;;23.45;5.00;;;;;;;8.72;100.00;103045.50;5033850;28;20458;-82
2023/05/27 06:11:26;;;;;;;20.40;4.45;;;;;;;8.93;100.00;103043.59;5032808;28;20436;-82
2023/05/27 06:13:52;;;;;;;19.45;4.88;;;;;;;9.13;100.00;103028.50;5033359;28;20037;-81
2023/05/27 06:16:17;;;;;;;18.58;4.53;;;;;;;9.28;100.00;103026.88;5033710;28;20037;-83
2023/05/27 06:18:45;;;;;;;15.23;4.10;;;;;;;9.41;100.00;103027.97;5033526;28;20034;-81
2023/05/27 06:21:11;;;;;;;16.08;4.05;;;;;;;9.57;100.00;103025.41;5035353;28;20056;-83
2023/05/27 06:23:36;;;;;;;13.82;4.80;;;;;;;9.78;100.00;103027.84;5033692;28;20458;-82
2023/05/27 06:26:02;;;;;;;18.25;4.45;;;;;;;9.92;100.00;103011.19;5032965;28;20458;-81
2023/05/27 06:28:27;;;;;;;15.88;4.13;;;;;;;10.06;100.00;103006.84;5033164;28;20037;-82
2023/05/27 06:30:53;;;;;;;15.30;4.47;;;;;;;10.15;100.00;103009.94;5032519;28;20037;-80
2023/05/27 06:33:18;;;;;;;16.88;4.15;;;;;;;10.23;100.00;103007.72;5033478;28;20084;-81
2023/05/27 06:35:44;;;;;;;18.20;4.70;;;;;;;10.43;100.00;103005.81;5033178;28;20033;-82
2023/05/27 06:38:09;;;;;;;15.40;4.07;;;;;;;10.56;100.00;103004.19;5037014;28;20484;-81
2023/05/27 06:40:34;;;;;;;17.70;3.90;;;;;;;10.69;100.00;103005.19;5034249;28;20033;-81
2023/05/27 06:43:00;;;;;;;14.23;3.88;;;;;;;10.75;100.00;102996.88;5032653;28;20478;-82
2023/05/27 06:45:25;;;;;;;17.40;4.22;;;;;;;10.84;100.00;102992.81;5032972;28;20381;-83
2023/05/27 06:47:51;;;;;;;20.58;4.45;;;;;;;10.91;100.00;103004.84;5032023;28;20453;-82
2023/05/27 06:50:16;;;;;;;14.15;4.20;;;;;;;10.98;100.00;103001.81;5031322;28;20125;-81
2023/05/27 06:52:41;;;;;;;12.48;3.92;;;;;;;11.12;100.00;102999.19;5032521;28;20138;-82
2023/05/27 06:55:07;;;;;;;21.27;4.38;;;;;;;11.24;100.00;102993.16;5032662;28;20038;-82
2023/05/27 06:57:33;;;;;;;20.58;4.68;;;;;;;11.32;100.00;102991.84;5033254;28;20470;-82
2023/05/27 06:59:58;;;;;;;18.15;4.30;;;;;;;11.43;100.00;103002.72;5034752;28;20091;-81
2023/05/27 07:02:23;;;;;;;20.60;4.68;;;;;;;11.50;100.00;102990.72;5034745;28;20030;-82
2023/05/27 07:04:49;;;;;;;21.17;4.40;;;;;;;11.67;100.00;102995.03;5032979;28;20546;-80
2023/05/27 07:07:15;;;;;;;15.48;4.03;;;;;;;11.80;100.00;102997.81;5032838;28;20060;-81
2023/05/27 07:09:41;;;;;;;15.40;3.83;;;;;;;11.91;100.00;102992.69;5032293;28;20393;-82
2023/05/27 07:12:06;;;;;;;20.00;4.28;;;;;;;11.94;100.00;102992.53;5032252;28;20033;-78
2023/05/27 07:14:32;;;;;;;23.08;6.47;;;;;;;12.02;100.00;102991.16;5032658;28;20543;-79
2023/05/27 07:16:57;;;;;;;15.55;4.05;;;;;;;12.11;100.00;103001.28;5031484;28;20493;-75
2023/05/27 07:19:23;;;;;;;20.55;4.57;;;;;;;12.23;100.00;102995.16;5031826;28;20055;-76
2023/05/27 07:21:48;;;;;;;23.60;4.88;;;;;;;12.32;100.00;102991.91;5032191;28;20033;-75
2023/05/27 07:24:14;;;;;;;19.55;4.05;;;;;;;12.42;100.00;102976.16;5030016;28;20497;-74
2023/05/27 07:26:40;;;;;;;21.65;4.70;;;;;;;12.50;100.00;102981.00;5030874;28;20025;-75
2023/05/27 07:29:05;;;;;;;14.45;4.13;;;;;;;12.52;100.00;102976.41;5030357;28;20029;-75
2023/05/27 07:31:31;;;;;;;21.23;4.45;;;;;;;12.43;100.00;102979.69;5031616;28;20036;-74
2023/05/27 07:33:56;;;;;;;13.32;4.15;;;;;;;12.64;100.00;102986.28;5031583;28;20033;-74
2023/05/27 07:36:21;;;;;;;20.80;4.68;;;;;;;12.55;100.00;102975.38;5031657;28;20025;-75
2023/05/27 07:38:47;;;;;;;18.42;5.05;;;;;;;12.60;100.00;102983.91;5025600;28;20125;-77
2023/05/27 07:41:13;;;;;;;16.85;4.30;;;;;;;12.55;100.00;102976.22;5023851;28;20044;-74
2023/05/27 07:43:38;;;;;;;21.77;4.75;;;;;;;12.83;100.00;102971.72;5030940;28;20037;-75
2023/05/27 07:46:03;;;;;;;23.10;4.68;;;;;;;13.15;100.00;102971.38;5030952;28;20045;-74
2023/05/27 07:48:29;;;;;;;16.95;4.85;;;;;;;13.32;100.00;102971.09;5030953;28;20081;-76
2023/05/27 07:50:55;;;;;;;13.82;4.50;;;;;;;13.61;100.00;102968.25;5031618;28;20380;-76
2023/05/27 07:53:21;;;;;;;18.48;4.80;;;;;;;13.84;100.00;102968.44;5031447;28;20030;-75
2023/05/27 07:55:46;;;;;;;16.67;4.72;;;;;;;14.09;100.00;102959.50;5031082;28;20033;-75
2023/05/27 07:58:12;;;;;;;18.13;4.43;;;;;;;14.16;100.00;102957.25;5030730;28;20049;-75
2023/05/27 08:00:37;;;;;;;19.70;4.47;;;;;;;14.32;100.00;102959.69;5030973;28;20033;-73
2023/05/27 08:03:02;;;;;;;15.13;4.72;;;;;;;14.24;100.00;102963.78;5029311;28;20075;-75
2023/05/27 08:05:28;;;;;;;23.10;5.20;;;;;;;14.08;100.00;102947.13;5046445;28;20074;-74
2023/05/27 08:07:53;;;;;;;17.90;4.85;;;;;;;14.26;100.00;102961.00;5029823;28;20462;-73
2023/05/27 08:10:19;;;;;;;19.88;4.43;;;;;;;14.42;100.00;102950.88;5030346;28;20029;-74
2023/05/27 08:12:44;;;;;;;24.30;4.80;;;;;;;14.61;100.00;102947.72;5031126;28;20508;-74
2023/05/27 08:15:09;;;;;;;19.20;4.40;;;;;;;14.44;100.00;102948.91;5030635;28;20034;-76
2023/05/27 08:17:35;;;;;;;14.20;3.95;;;;;;;14.71;100.00;102941.66;5046106;28;20044;-74
2023/05/27 08:20:00;;;;;;;16.90;4.70;;;;;;;14.96;100.00;102938.00;5030790;28;20041;-74
2023/05/27 08:22:26;;;;;;;25.67;4.68;;;;;;;15.04;100.00;102940.91;5034763;28;20025;-73
2023/05/27 08:24:51;;;;;;;17.13;5.05;;;;;;;15.34;100.00;102936.84;5034601;28;20085;-75
2023/05/27 08:27:17;;;;;;;19.70;5.60;;;;;;;15.56;100.00;102944.06;5034042;28;20335;-75
2023/05/27 08:29:43;;;;;;;14.75;3.63;;;;;;;15.48;100.00;102939.31;5034467;28;20041;-76
2023/05/27 08:32:09;;;;;;;17.42;4.40;;;;;;;15.50;100.00;102931.16;5034292;28;20033;-75
2023/05/27 08:34:34;;;;;;;19.75;4.90;;;;;;;15.81;100.00;102918.88;5034365;28;20371;-73
2023/05/27 08:37:01;;;;;;;21.70;4.60;;;;;;;15.64;100.00;102914.78;5033759;28;20029;-75
2023/05/27 08:39:27;;;;;;;15.60;4.38;;;;;;;15.69;100.00;102911.78;5033009;28;20045;-74
2023/05/27 08:41:53;;;;;;;16.60;4.35;;;;;;;15.88;100.00;102911.16;5033922;28;20042;-73
2023/05/27 08:44:21;;;;;;;21.27;4.90;;;;;;;16.18;100.00;102905.16;5033742;28;20043;-75
2023/05/27 08:46:49;;;;;;;16.80;4.82;;;;;;;16.52;100.00;102898.78;5034168;28;20105;-75
2023/05/27 08:49:14;;;;;;;14.80;4.50;;;;;;;16.64;100.00;102902.28;5033382;28;20393;-74
2023/05/27 08:51:41;;;;;;;15.57;4.03;;;;;;;16.76;98.03;102890.50;5033948;28;20124;-75
2023/05/27 08:54:08;;;;;;;18.67;4.68;;;;;;;16.94;100.00;102885.41;5033706;28;20104;-75
2023/05/27 08:56:35;;;;;;;19.35;4.95;;;;;;;17.28;93.75;102891.41;5033824;28;20037;-76
2023/05/27 08:59:01;;;;;;;16.50;4.43;;;;;;;17.63;94.84;102876.72;5033915;28;20112;-76
2023/05/27 09:01:27;;;;;;;10.68;3.90;;;;;;;18.01;90.33;102877.00;5033229;28;20116;-76
2023/05/27 09:03:54;;;;;;;15.98;4.40;;;;;;;18.36;72.75;102870.22;5033733;28;20233;-74
2023/05/27 09:06:20;;;;;;;13.75;4.25;;;;;;;18.62;68.70;102873.19;5033371;28;20042;-77
2023/05/27 09:08:45;;;;;;;16.55;4.35;;;;;;;18.49;68.41;102872.63;5033668;28;20429;-75
2023/05/27 09:11:20;;;;;;;18.40;4.30;;;;;;;19.05;69.56;102859.38;5033030;28;20457;-78
2023/05/27 09:13:46;;;;;;;12.68;4.22;;;;;;;18.80;65.54;102864.38;5033767;28;20105;-76
2023/05/27 09:16:11;;;;;;;13.70;4.13;;;;;;;19.25;61.47;102862.88;5032211;28;20113;-75
2023/05/27 09:18:37;;;;;;;15.48;4.28;;;;;;;19.41;59.76;102855.00;5033781;28;20565;-78
2023/05/27 09:21:03;;;;;;;16.63;4.38;;;;;;;19.80;65.86;102857.53;5033663;28;20061;-77
2023/05/27 09:23:28;;;;;;;18.33;4.60;;;;;;;19.95;57.24;102865.97;5032822;28;20053;-78
2023/05/27 09:25:53;;;;;;;15.70;4.00;;;;;;;20.06;53.97;102854.09;5032987;28;20119;-73
2023/05/27 09:28:26;;;;;;;17.58;4.43;;;;;;;20.59;54.95;102855.09;5032854;28;20029;-77
2023/05/27 09:31:06;;;;;;;13.25;3.95;;;;;;;21.07;54.57;102851.06;5033397;28;20540;-75
2023/05/27 09:33:33;;;;;;;13.95;4.35;;;;;;;21.37;54.75;102848.00;5032238;28;20045;-75
2023/05/27 09:36:00;;;;;;;13.52;4.07;;;;;;;21.67;50.37;102846.63;5032901;28;20121;-80
2023/05/27 09:38:28;;;;;;;16.48;4.78;;;;;;;21.79;52.75;102845.28;5032563;28;20470;-76
2023/05/27 09:40:54;;;;;;;16.25;4.15;;;;;;;21.94;55.17;102837.38;5032955;28;20052;-75
2023/05/27 09:43:19;;;;;;;17.67;4.00;;;;;;;22.23;49.62;102841.50;5032820;28;20037;-75
2023/05/27 09:45:45;;;;;;;16.10;4.25;;;;;;;22.71;47.71;102834.38;5033214;28;20033;-77
2023/05/27 09:48:13;;;;;;;18.20;4.50;;;;;;;22.64;48.53;102841.50;5048321;28;20029;-75
2023/05/27 09:50:40;;;;;;;12.40;4.65;;;;;;;22.22;47.56;102834.38;5033007;28;20026;-77
2023/05/27 09:53:06;;;;;;;16.50;4.25;;;;;;;22.08;49.39;102835.88;5031748;28;20033;-75
2023/05/27 09:55:32;;;;;;;17.00;5.10;;;;;;;22.11;47.84;102832.84;5032402;28;20474;-76
2023/05/27 09:57:58;;;;;;;14.25;4.28;;;;;;;22.58;48.46;102841.34;5032938;28;20079;-80
2023/05/27 10:00:27;;;;;;;17.70;4.65;;;;;;;22.99;49.00;102836.72;5032833;28;20158;-81
2023/05/27 10:02:53;;;;;;;14.18;4.82;;;;;;;23.02;46.63;102836.38;5033028;28;20108;-78
2023/05/27 10:05:22;;;;;;;17.20;4.68;;;;;;;23.26;46.33;102836.47;5033038;28;20055;-78
2023/05/27 10:07:48;;;;;;;14.70;4.38;;;;;;;23.50;45.98;102825.53;5032598;28;20124;-79
2023/05/27 10:10:18;;;;;;;16.10;4.75;;;;;;;23.36;45.37;102828.97;5032467;28;20033;-81
2023/05/27 10:12:46;;;;;;;11.93;4.55;;;;;;;23.12;47.67;102825.31;5032917;28;20048;-81
2023/05/27 10:15:23;;;;;;;14.45;4.35;;;;;;;23.37;47.21;102812.50;5032348;28;20064;-72
2023/05/27 10:17:55;;;;;;;13.95;4.28;;;;;;;23.48;48.00;102824.00;5032383;28;20083;-78
2023/05/27 10:20:37;;;;;;;17.52;4.75;;;;;;;23.19;45.05;102815.47;5030380;28;20036;-79
2023/05/27 10:23:10;;;;;;;15.77;4.53;;;;;;;23.53;43.57;102811.59;5032159;28;20029;-78
2023/05/27 10:25:36;;;;;;;12.88;4.18;;;;;;;23.73;46.21;102808.41;5031925;28;20714;-78
2023/05/27 10:28:02;;;;;;;13.23;4.25;;;;;;;23.64;44.86;102801.34;5032222;28;20033;-81
2023/05/27 10:30:28;;;;;;;19.67;5.70;;;;;;;23.88;44.07;102795.75;5031415;28;20055;-80
2023/05/27 10:32:53;;;;;;;24.92;4.20;;;;;;;24.36;45.97;102787.38;5032180;28;20041;-75
2023/05/27 10:35:19;;;;;;;14.88;4.72;;;;;;;24.35;44.27;102795.72;5014021;28;20029;-80
2023/05/27 10:37:46;;;;;;;16.50;4.85;;;;;;;24.29;42.72;102792.72;5032391;28;20029;-77
2023/05/27 10:40:12;;;;;;;17.35;5.40;;;;;;;24.40;42.72;102782.44;5032020;28;20492;-76
2023/05/27 10:42:38;;;;;;;19.02;4.53;;;;;;;24.47;44.91;102786.13;5031369;28;20037;-74
2023/05/27 10:45:08;;;;;;;17.63;4.95;;;;;;;24.60;42.68;102782.78;5031719;28;20115;-76
2023/05/27 10:47:36;;;;;;;16.00;4.85;;;;;;;24.82;42.38;102770.13;5033390;28;20044;-78
2023/05/27 10:50:11;;;;;;;16.67;4.63;;;;;;;24.93;41.42;102774.25;5031790;28;20037;-76
2023/05/27 10:52:38;;;;;;;18.23;4.68;;;;;;;25.03;42.03;102776.69;5031687;28;20025;-79
2023/05/27 10:55:05;;;;;;;15.63;4.95;;;;;;;24.94;42.43;102765.91;5032438;28;20469;-79
2023/05/27 10:57:31;;;;;;;19.50;4.80;;;;;;;25.50;40.92;102762.66;5032704;28;20112;-82
2023/05/27 11:00:08;;;;;;;20.33;4.60;;;;;;;25.15;38.42;102759.69;5031852;28;20091;-77
2023/05/27 11:02:36;;;;;;;16.52;5.03;;;;;;;25.17;38.98;102754.06;5031473;28;20461;-77
2023/05/27 11:05:08;;;;;;;15.15;4.68;;;;;;;25.39;41.19;102754.13;5031588;28;20036;-77
2023/05/27 11:07:37;;;;;;;15.65;5.00;;;;;;;25.59;39.39;102743.44;5031272;28;20037;-76
2023/05/27 11:10:05;;;;;;;13.77;4.78;;;;;;;25.73;38.30;102747.16;5031347;28;20132;-77